createdAt,value
2018-09-27T00:07:39.283Z,7.5
2018-09-27T00:17:38.502Z,7.4
2018-09-27T00:27:37.720Z,7.5
2018-09-27T00:37:36.938Z,7.4
2018-09-27T00:47:36.156Z,7.4
2018-09-27T00:57:35.376Z,7.3
2018-09-27T01:07:34.590Z,7.2
2018-09-27T01:17:33.809Z,7.2
2018-09-27T01:27:33.022Z,7.1
2018-09-27T01:37:32.290Z,7
2018-09-27T01:47:31.464Z,6.9
2018-09-27T01:57:30.680Z,6.8
2018-09-27T02:07:29.893Z,6.6
2018-09-27T02:17:29.111Z,6.6
2018-09-27T02:27:28.328Z,6.4
2018-09-27T02:37:27.551Z,6.4
2018-09-27T02:47:26.762Z,6.2
2018-09-27T02:57:26.029Z,5.9
2018-09-27T03:07:25.197Z,5.8
2018-09-27T03:17:24.418Z,5.6
2018-09-27T03:27:23.637Z,5.4
2018-09-27T03:37:22.861Z,5.4
2018-09-27T03:47:22.081Z,5.3
2018-09-27T03:57:21.299Z,5
2018-09-27T04:07:20.517Z,4.9
2018-09-27T04:17:19.733Z,4.9
2018-09-27T04:27:18.947Z,4.8
2018-09-27T04:37:18.180Z,4.9
2018-09-27T04:47:17.441Z,5.2
2018-09-27T04:57:16.609Z,5.4
2018-09-27T05:07:15.822Z,5.9
2018-09-27T05:17:15.046Z,7.1
2018-09-27T05:27:14.281Z,8.1
2018-09-27T05:37:13.480Z,9.8
2018-09-27T05:47:12.699Z,11.1
2018-09-27T05:57:11.911Z,12.4
2018-09-27T06:07:11.140Z,13.4
2018-09-27T06:17:10.357Z,14.5
2018-09-27T06:27:09.575Z,15.8
2018-09-27T06:37:08.787Z,16.1
2018-09-27T06:47:08.009Z,18
2018-09-27T06:57:07.226Z,19.4
2018-09-27T07:07:06.493Z,20.5
2018-09-27T07:17:05.680Z,22.3
2018-09-27T07:27:04.915Z,21.6
2018-09-27T07:37:04.093Z,21.6
2018-09-27T07:47:03.316Z,21.2
2018-09-27T07:57:02.533Z,20.1
2018-09-27T08:07:01.752Z,19.4
2018-09-27T08:17:01.103Z,19.9
2018-09-27T08:27:00.191Z,19.1
2018-09-27T08:36:59.405Z,19
2018-09-27T08:46:58.630Z,19.4
2018-09-27T08:56:57.837Z,18.5
2018-09-27T09:06:57.057Z,17.9
2018-09-27T09:16:56.273Z,18.5
2018-09-27T09:26:55.500Z,17.8
2018-09-27T09:36:54.706Z,18.4
2018-09-27T09:46:53.923Z,18.8
2018-09-27T09:56:53.142Z,19.4
2018-09-27T10:06:52.356Z,18.9
2018-09-27T10:16:51.577Z,18.8
2018-09-27T10:26:50.787Z,20.1
2018-09-27T10:36:50.004Z,19.6
2018-09-27T10:46:49.225Z,19.5
2018-09-27T10:56:48.436Z,18.3
2018-09-27T11:06:47.653Z,17.4
2018-09-27T11:16:46.880Z,16.7
2018-09-27T11:26:46.092Z,16.7
2018-09-27T11:36:45.309Z,16.2
2018-09-27T11:46:44.518Z,15.9
2018-09-27T11:56:43.734Z,15.9
2018-09-27T12:06:43.015Z,16.1
2018-09-27T12:16:42.293Z,15.7
2018-09-27T12:26:41.436Z,15.6
2018-09-27T12:36:40.682Z,15.8
2018-09-27T12:46:39.856Z,16.1
2018-09-27T12:56:39.041Z,15.8
2018-09-27T13:06:38.257Z,15.7
2018-09-27T13:16:37.473Z,15.8
2018-09-27T13:26:36.807Z,15.6
2018-09-27T13:36:35.903Z,15.5
2018-09-27T13:46:35.190Z,15.6
2018-09-27T13:56:34.350Z,15.7
2018-09-27T14:06:33.559Z,15.6
2018-09-27T14:16:32.778Z,15.4
2018-09-27T14:26:31.993Z,15.3
2018-09-27T14:36:31.229Z,15.3
2018-09-27T14:46:30.472Z,15.2
2018-09-27T14:56:29.646Z,15.1
2018-09-27T15:06:28.882Z,15
2018-09-27T15:16:28.292Z,14.8
2018-09-27T15:26:27.285Z,14.7
2018-09-27T15:36:26.576Z,14.6
2018-09-27T15:46:25.721Z,14.4
2018-09-27T15:56:24.939Z,14.2
2018-09-27T16:06:24.161Z,13.9
2018-09-27T16:16:23.373Z,13.6
2018-09-27T16:26:22.589Z,13.2
2018-09-27T16:36:21.859Z,12.9
2018-09-27T16:46:21.033Z,12.7
2018-09-27T16:56:20.238Z,12.6
2018-09-27T17:06:19.456Z,12.2
2018-09-27T17:16:18.676Z,12.5
2018-09-27T17:26:17.887Z,12.5
2018-09-27T17:36:17.103Z,12.6
2018-09-27T17:46:16.320Z,12.6
2018-09-27T17:56:15.540Z,12.6
2018-09-27T18:06:14.758Z,12.4
2018-09-27T18:16:13.975Z,12.3
2018-09-27T18:26:13.234Z,12.1
2018-09-27T18:36:12.404Z,12.1
2018-09-27T18:46:11.628Z,11.9
2018-09-27T18:56:10.838Z,11.9
2018-09-27T19:06:10.061Z,11.8
2018-09-27T19:16:09.323Z,11.6
2018-09-27T19:26:08.497Z,11.4
2018-09-27T19:36:07.715Z,11.1
2018-09-27T19:46:06.944Z,11.1
2018-09-27T19:56:06.296Z,11
2018-09-27T20:06:05.375Z,11.1
2018-09-27T20:16:04.701Z,11.1
2018-09-27T20:26:03.816Z,11
2018-09-27T20:36:03.035Z,10.9
2018-09-27T20:46:02.255Z,10.8
2018-09-27T20:56:01.484Z,10.6
2018-09-27T21:06:00.694Z,10.6
2018-09-27T21:15:59.910Z,10.7
2018-09-27T21:25:59.127Z,10.7
2018-09-27T21:35:58.348Z,10.7
2018-09-27T21:45:57.574Z,10.6
2018-09-27T21:55:56.859Z,10.6
2018-09-27T22:05:56.016Z,10.6
2018-09-27T22:15:55.232Z,10.6
2018-09-27T22:25:54.450Z,10.5
2018-09-27T22:35:53.671Z,10.5
2018-09-27T22:45:52.887Z,10.4
2018-09-27T22:55:52.105Z,10.3
2018-09-27T23:05:51.320Z,10.2
2018-09-27T23:15:50.521Z,10.1
2018-09-27T23:25:49.748Z,10
2018-09-27T23:35:48.956Z,9.9
2018-09-27T23:45:48.181Z,9.9
2018-09-27T23:55:47.393Z,9.8
